createdAt,value
2023-10-26T00:01:52.877Z,95254.03
2023-10-26T00:04:20.612Z,95258.81
2023-10-26T00:06:48.445Z,95247.91
2023-10-26T00:09:17.415Z,95254.75
2023-10-26T00:11:45.065Z,95250.13
2023-10-26T00:14:12.695Z,95255.34
2023-10-26T00:16:40.455Z,95248.53
2023-10-26T00:19:08.116Z,95242.50
2023-10-26T00:21:35.737Z,95254.88
2023-10-26T00:24:03.503Z,95248.88
2023-10-26T00:26:32.470Z,95261.53
2023-10-26T00:29:00.055Z,95245.50
2023-10-26T00:31:27.716Z,95248.66
2023-10-26T00:33:55.341Z,95250.34
2023-10-26T00:36:23.322Z,95254.16
2023-10-26T00:38:50.949Z,95255.16
2023-10-26T00:41:18.556Z,95236.94
2023-10-26T00:43:48.676Z,95260.69
2023-10-26T00:46:16.518Z,95243.47
2023-10-26T00:48:44.484Z,95248.25
2023-10-26T00:51:12.255Z,95244.53
2023-10-26T00:53:42.598Z,95241.41
2023-10-26T00:56:13.567Z,95248.59
2023-10-26T00:58:41.642Z,95249.75
2023-10-26T01:01:10.798Z,95249.66
2023-10-26T01:03:41.586Z,95248.59
2023-10-26T01:06:09.958Z,95246.56
2023-10-26T01:08:38.003Z,95251.66
2023-10-26T01:11:05.963Z,95255.38
2023-10-26T01:13:34.404Z,95261.19
2023-10-26T01:16:04.080Z,95256.00
2023-10-26T01:18:33.571Z,95254.88
2023-10-26T01:21:01.304Z,95255.09
2023-10-26T01:23:30.252Z,95252.25
2023-10-26T01:25:59.615Z,95260.63
2023-10-26T01:28:27.470Z,95259.78
2023-10-26T01:30:55.617Z,95264.09
2023-10-26T01:33:23.403Z,95265.88
2023-10-26T01:35:51.262Z,95267.25
2023-10-26T01:38:18.941Z,95263.25
2023-10-26T01:40:47.911Z,95266.56
2023-10-26T01:43:15.500Z,95267.28
2023-10-26T01:45:43.166Z,95257.28
2023-10-26T01:48:10.910Z,95255.63
2023-10-26T01:50:39.623Z,95259.31
2023-10-26T01:53:07.489Z,95255.91
2023-10-26T01:55:35.144Z,95256.09
2023-10-26T01:58:04.164Z,95251.97
2023-10-26T02:00:31.791Z,95254.78
2023-10-26T02:02:59.821Z,95251.13
2023-10-26T02:05:27.763Z,95248.69
2023-10-26T02:07:55.423Z,95245.34
2023-10-26T02:10:24.946Z,95244.09
2023-10-26T02:12:52.622Z,95243.94
2023-10-26T02:15:21.605Z,95251.16
2023-10-26T02:17:49.327Z,95242.50
2023-10-26T02:20:17.039Z,95244.66
2023-10-26T02:22:44.673Z,95247.19
2023-10-26T02:25:12.291Z,95245.53
2023-10-26T02:27:39.985Z,95252.84
2023-10-26T02:30:08.955Z,95257.38
2023-10-26T02:32:37.912Z,95255.88
2023-10-26T02:35:06.179Z,95254.53
2023-10-26T02:37:34.375Z,95251.72
2023-10-26T02:40:02.117Z,95254.22
2023-10-26T02:42:29.761Z,95244.06
2023-10-26T02:44:58.912Z,95253.19
2023-10-26T02:47:26.567Z,95250.38
2023-10-26T02:49:55.615Z,95245.91
2023-10-26T02:52:23.401Z,95242.38
2023-10-26T02:54:51.275Z,95244.06
2023-10-26T02:57:19.077Z,95243.25
2023-10-26T02:59:46.738Z,95245.91
2023-10-26T03:02:14.404Z,95245.06
2023-10-26T03:04:44.197Z,95240.56
2023-10-26T03:07:13.509Z,95233.75
2023-10-26T03:09:41.253Z,95236.56
2023-10-26T03:12:09.765Z,95238.72
2023-10-26T03:14:37.411Z,95238.25
2023-10-26T03:17:05.397Z,95239.91
2023-10-26T03:19:33.378Z,95236.22
2023-10-26T03:22:01.111Z,95233.56
2023-10-26T03:24:30.131Z,95236.06
2023-10-26T03:26:57.803Z,95240.25
2023-10-26T03:29:25.486Z,95237.59
2023-10-26T03:31:53.673Z,95239.22
2023-10-26T03:34:21.305Z,95241.41
2023-10-26T03:36:48.964Z,95244.22
2023-10-26T03:39:16.637Z,95249.38
2023-10-26T03:41:45.638Z,95247.91
2023-10-26T03:44:13.293Z,95247.56
2023-10-26T03:46:40.961Z,95255.72
2023-10-26T03:49:08.555Z,95244.22
2023-10-26T03:51:36.190Z,95235.75
2023-10-26T03:54:04.388Z,95244.88
2023-10-26T03:56:32.007Z,95239.91
2023-10-26T03:59:00.935Z,95242.22
2023-10-26T04:01:28.560Z,95243.72
2023-10-26T04:03:56.160Z,95241.56
2023-10-26T04:06:23.860Z,95239.22
2023-10-26T04:08:55.365Z,95236.22
2023-10-26T04:11:22.986Z,95233.56
2023-10-26T04:13:50.619Z,95235.41
2023-10-26T04:16:19.631Z,95227.91
2023-10-26T04:18:47.276Z,95236.91
2023-10-26T04:21:14.945Z,95228.91
2023-10-26T04:23:42.656Z,95230.91
2023-10-26T04:26:13.276Z,95237.91
2023-10-26T04:28:51.442Z,95224.44
2023-10-26T04:31:21.929Z,95233.41
2023-10-26T04:33:50.193Z,95239.41
2023-10-26T04:36:17.908Z,95236.91
2023-10-26T04:38:45.561Z,95236.06
2023-10-26T04:41:13.160Z,95231.25
2023-10-26T04:43:40.793Z,95235.59
2023-10-26T04:46:08.506Z,95228.59
2023-10-26T04:48:37.558Z,95219.59
2023-10-26T04:51:05.391Z,95216.94
2023-10-26T04:53:33.000Z,95214.28
2023-10-26T04:56:00.642Z,95218.09
2023-10-26T04:58:28.309Z,95214.28
2023-10-26T05:00:55.933Z,95215.75
2023-10-26T05:03:23.569Z,95215.59
2023-10-26T05:05:53.699Z,95218.94
2023-10-26T05:08:21.449Z,95209.28
2023-10-26T05:10:49.169Z,95208.94
2023-10-26T05:13:16.820Z,95204.63
2023-10-26T05:15:45.001Z,95207.97
2023-10-26T05:18:12.799Z,95200.47
2023-10-26T05:20:40.888Z,95192.81
2023-10-26T05:23:09.945Z,95197.66
2023-10-26T05:25:38.369Z,95199.97
2023-10-26T05:28:06.062Z,95192.81
2023-10-26T05:30:33.741Z,95194.28
2023-10-26T05:33:01.496Z,95195.31
2023-10-26T05:35:29.211Z,95189.81
2023-10-26T05:37:56.855Z,95187.63
2023-10-26T05:40:26.058Z,95181.97
2023-10-26T05:42:53.535Z,95179.31
2023-10-26T05:45:21.176Z,95174.97
2023-10-26T05:47:53.825Z,95180.13
2023-10-26T05:50:21.866Z,95180.63
2023-10-26T05:52:49.815Z,95173.13
2023-10-26T05:55:17.541Z,95168.31
2023-10-26T05:57:46.555Z,95173.97
2023-10-26T06:00:15.160Z,95161.63
2023-10-26T06:02:42.863Z,95159.78
2023-10-26T06:05:10.510Z,95165.97
2023-10-26T06:07:38.158Z,95179.47
2023-10-26T06:10:07.080Z,95180.47
2023-10-26T06:12:34.746Z,95179.31
2023-10-26T06:15:03.842Z,95180.78
2023-10-26T06:17:31.559Z,95180.97
2023-10-26T06:19:59.226Z,95177.63
2023-10-26T06:22:26.846Z,95182.13
2023-10-26T06:24:54.493Z,95170.66
2023-10-26T06:27:22.121Z,95172.31
2023-10-26T06:29:53.524Z,95170.28
2023-10-26T06:32:22.464Z,95179.97
2023-10-26T06:34:51.857Z,95182.63
2023-10-26T06:37:19.484Z,95177.94
2023-10-26T06:39:47.134Z,95176.28
2023-10-26T06:42:14.770Z,95174.63
2023-10-26T06:44:42.737Z,95174.63
2023-10-26T06:47:10.537Z,95179.94
2023-10-26T06:49:42.327Z,95187.59
2023-10-26T06:52:10.117Z,95182.94
2023-10-26T06:54:39.936Z,95185.91
2023-10-26T06:57:08.281Z,95183.72
2023-10-26T06:59:35.903Z,95178.91
2023-10-26T07:02:10.423Z,95183.84
2023-10-26T07:04:39.862Z,95186.91
2023-10-26T07:07:09.116Z,95182.03
2023-10-26T07:09:37.040Z,95181.38
2023-10-26T07:12:05.159Z,95191.03
2023-10-26T07:14:32.818Z,95185.19
2023-10-26T07:17:00.447Z,95184.84
2023-10-26T07:19:28.032Z,95181.81
2023-10-26T07:21:57.062Z,95181.81
2023-10-26T07:24:24.772Z,95186.09
2023-10-26T07:26:52.487Z,95188.75
2023-10-26T07:29:20.116Z,95179.09
2023-10-26T07:31:50.392Z,95173.91
2023-10-26T07:34:18.795Z,95165.94
2023-10-26T07:36:46.420Z,95165.75
2023-10-26T07:39:48.052Z,95163.38
2023-10-26T07:42:07.358Z,95165.72
2023-10-26T07:44:38.564Z,95180.03
2023-10-26T07:47:09.593Z,95163.38
2023-10-26T07:49:37.488Z,95163.03
2023-10-26T07:52:06.173Z,95166.84
2023-10-26T07:54:35.170Z,95161.50
2023-10-26T07:57:02.799Z,95160.63
2023-10-26T07:59:31.570Z,95157.63
2023-10-26T08:01:59.342Z,95154.06
2023-10-26T08:04:28.707Z,95154.22
2023-10-26T08:06:56.372Z,95146.88
2023-10-26T08:09:24.130Z,95156.81
2023-10-26T08:11:53.127Z,95155.13
2023-10-26T08:14:35.859Z,95156.19
2023-10-26T08:17:08.466Z,95149.63
2023-10-26T08:19:36.189Z,95151.19
2023-10-26T08:22:03.965Z,95145.31
2023-10-26T08:24:31.603Z,95142.38
2023-10-26T08:27:00.580Z,95141.34
2023-10-26T08:29:29.616Z,95140.34
2023-10-26T08:31:57.664Z,95149.97
2023-10-26T08:34:25.582Z,95157.63
2023-10-26T08:37:11.652Z,95151.25
2023-10-26T08:39:41.016Z,95147.88
2023-10-26T08:42:10.881Z,95155.00
2023-10-26T08:44:40.828Z,95159.13
2023-10-26T08:47:11.230Z,95172.69
2023-10-26T08:49:40.629Z,95177.44
2023-10-26T08:52:09.249Z,95165.38
2023-10-26T08:54:37.030Z,95170.16
2023-10-26T08:57:09.141Z,95169.81
2023-10-26T08:59:38.592Z,95155.06
2023-10-26T09:02:07.027Z,95150.72
2023-10-26T09:04:35.183Z,95150.00
2023-10-26T09:07:02.887Z,95153.13
2023-10-26T09:09:31.021Z,95161.97
2023-10-26T09:12:10.388Z,95156.34
2023-10-26T09:14:39.335Z,95157.66
2023-10-26T09:17:07.136Z,95164.00
2023-10-26T09:19:42.261Z,95165.31
2023-10-26T09:22:14.077Z,95155.00
2023-10-26T09:24:41.905Z,95162.81
2023-10-26T09:27:19.127Z,95163.72
2023-10-26T09:29:48.376Z,95171.13
2023-10-26T09:32:16.030Z,95172.66
2023-10-26T09:34:46.813Z,95171.84
2023-10-26T09:37:14.782Z,95159.81
2023-10-26T09:39:43.188Z,95152.47
2023-10-26T09:42:12.564Z,95165.19
2023-10-26T09:44:40.803Z,95175.50
2023-10-26T09:47:11.248Z,95186.47
2023-10-26T09:49:39.296Z,95188.31
2023-10-26T09:52:07.356Z,95178.47
2023-10-26T09:54:37.727Z,95182.09
2023-10-26T09:57:13.148Z,95188.88
2023-10-26T09:59:41.925Z,95175.34
2023-10-26T10:02:18.303Z,95176.56
2023-10-26T10:04:46.775Z,95196.72
2023-10-26T10:07:18.089Z,95198.94
2023-10-26T10:10:08.370Z,95189.66
2023-10-26T10:12:36.963Z,95187.78
2023-10-26T10:15:36.200Z,95192.06
2023-10-26T10:18:17.400Z,95197.47
2023-10-26T10:20:45.122Z,95193.78
2023-10-26T10:23:31.052Z,95189.81
2023-10-26T10:26:05.765Z,95195.09
2023-10-26T10:28:49.164Z,95200.06
2023-10-26T10:31:41.819Z,95202.00
2023-10-26T10:34:12.537Z,95201.38
2023-10-26T10:37:12.681Z,95199.50
2023-10-26T10:40:01.384Z,95206.34
2023-10-26T10:42:30.569Z,95198.97
2023-10-26T10:45:00.427Z,95201.00
2023-10-26T10:47:29.935Z,95201.22
2023-10-26T10:50:15.850Z,95205.47
2023-10-26T10:52:43.812Z,95206.47
2023-10-26T10:55:14.803Z,95202.13
2023-10-26T10:57:57.587Z,95189.78
2023-10-26T11:00:26.824Z,95185.69
2023-10-26T11:02:58.250Z,95191.81
2023-10-26T11:05:37.479Z,95191.81
2023-10-26T11:08:06.415Z,95186.84
2023-10-26T11:10:34.456Z,95179.00
2023-10-26T11:13:03.605Z,95176.50
2023-10-26T11:15:34.415Z,95182.91
2023-10-26T11:18:02.944Z,95188.53
2023-10-26T11:20:38.738Z,95178.41
2023-10-26T11:23:06.608Z,95184.22
2023-10-26T11:25:34.658Z,95181.56
2023-10-26T11:28:03.801Z,95155.72
2023-10-26T11:30:32.125Z,95158.31
2023-10-26T11:33:00.044Z,95150.28
2023-10-26T11:35:27.782Z,95136.19
2023-10-26T11:37:56.680Z,95139.72
2023-10-26T11:40:32.126Z,95138.81
2023-10-26T11:43:01.000Z,95137.16
2023-10-26T11:45:30.502Z,95140.50
2023-10-26T11:47:59.981Z,95133.41
2023-10-26T11:50:29.313Z,95132.69
2023-10-26T11:52:58.600Z,95130.25
2023-10-26T11:55:27.498Z,95125.50
2023-10-26T11:57:57.312Z,95118.13
2023-10-26T12:00:28.008Z,95110.47
2023-10-26T12:02:58.628Z,95115.91
2023-10-26T12:05:28.088Z,95114.47
2023-10-26T12:07:56.902Z,95104.56
2023-10-26T12:10:25.756Z,95105.41
2023-10-26T12:12:54.483Z,95101.25
2023-10-26T12:15:23.118Z,95097.78
2023-10-26T12:17:51.033Z,95087.31
2023-10-26T12:20:20.513Z,95088.97
2023-10-26T12:22:49.569Z,95084.00
2023-10-26T12:25:17.214Z,95088.13
2023-10-26T12:28:20.724Z,95072.00
2023-10-26T12:30:32.820Z,95074.09
2023-10-26T12:33:00.557Z,95079.03
2023-10-26T12:35:29.786Z,95076.97
2023-10-26T12:37:57.751Z,95071.56
2023-10-26T12:40:25.462Z,95069.59
2023-10-26T12:42:53.102Z,95068.50
2023-10-26T12:45:22.100Z,95066.47
2023-10-26T12:47:49.630Z,95069.31
2023-10-26T12:50:17.331Z,95069.94
2023-10-26T12:52:46.616Z,95067.28
2023-10-26T12:55:14.251Z,95060.44
2023-10-26T12:57:42.227Z,95052.56
2023-10-26T13:00:11.234Z,95048.75
2023-10-26T13:02:38.889Z,95048.00
2023-10-26T13:05:07.064Z,95050.50
2023-10-26T13:07:35.198Z,95047.63
2023-10-26T13:10:14.331Z,95044.72
2023-10-26T13:12:44.996Z,95039.16
2023-10-26T13:15:15.432Z,95039.31
2023-10-26T13:17:49.110Z,95038.50
2023-10-26T13:20:17.005Z,95036.81
2023-10-26T13:22:44.671Z,95033.31
2023-10-26T13:25:13.713Z,95031.66
2023-10-26T13:27:41.216Z,95037.22
2023-10-26T13:30:09.852Z,95051.06
2023-10-26T13:32:37.495Z,95028.97
2023-10-26T13:35:05.515Z,95038.25
2023-10-26T13:37:33.093Z,95030.44
2023-10-26T13:40:00.759Z,95020.50
2023-10-26T13:42:32.753Z,95020.28
2023-10-26T13:45:00.386Z,95016.97
2023-10-26T13:47:28.273Z,95013.44
2023-10-26T13:49:55.883Z,95021.91
2023-10-26T13:52:24.194Z,95024.78
2023-10-26T13:54:51.897Z,95026.63
2023-10-26T13:57:19.606Z,95035.06
2023-10-26T13:59:48.532Z,95017.53
2023-10-26T14:02:20.245Z,95017.56
2023-10-26T14:04:47.970Z,95009.94
2023-10-26T14:07:16.519Z,94995.03
2023-10-26T14:09:45.091Z,95000.00
2023-10-26T14:12:14.172Z,95002.47
2023-10-26T14:14:41.664Z,94997.09
2023-10-26T14:17:10.725Z,95009.03
2023-10-26T14:19:38.308Z,95014.00
2023-10-26T14:22:06.008Z,95004.91
2023-10-26T14:24:33.702Z,95003.25
2023-10-26T14:27:01.291Z,95006.53
2023-10-26T14:29:28.905Z,95008.16
2023-10-26T14:31:56.558Z,94999.91
2023-10-26T14:34:25.522Z,95005.69
2023-10-26T14:36:53.175Z,95006.50
2023-10-26T14:39:21.562Z,95016.00
2023-10-26T14:41:49.212Z,95017.59
2023-10-26T14:44:16.841Z,95017.78
2023-10-26T14:46:44.506Z,95013.44
2023-10-26T14:49:12.150Z,95006.41
2023-10-26T14:51:43.845Z,95006.59
2023-10-26T14:54:11.490Z,95011.28
2023-10-26T14:56:39.207Z,95011.72
2023-10-26T14:59:07.020Z,95012.09
2023-10-26T15:01:35.135Z,95015.16
2023-10-26T15:04:02.865Z,95003.00
2023-10-26T15:06:30.452Z,95002.56
2023-10-26T15:08:59.464Z,95004.00
2023-10-26T15:11:27.124Z,95005.88
2023-10-26T15:14:15.474Z,95017.81
2023-10-26T15:16:43.504Z,95016.34
2023-10-26T15:19:11.314Z,95024.31
2023-10-26T15:21:38.968Z,95025.34
2023-10-26T15:24:08.856Z,95020.00
2023-10-26T15:26:36.505Z,95016.22
2023-10-26T15:29:04.226Z,95008.59
2023-10-26T15:31:31.983Z,95011.91
2023-10-26T15:34:00.566Z,95014.53
2023-10-26T15:36:28.216Z,95019.25
2023-10-26T15:38:56.197Z,95015.47
2023-10-26T15:41:25.171Z,95023.06
2023-10-26T15:43:52.901Z,95026.13
2023-10-26T15:46:20.644Z,95026.91
2023-10-26T15:49:32.018Z,95023.16
2023-10-26T15:51:36.099Z,95020.25
2023-10-26T15:54:03.917Z,95020.25
2023-10-26T15:56:32.877Z,95015.41
2023-10-26T15:59:00.508Z,95027.06
2023-10-26T16:01:28.279Z,95025.81
2023-10-26T16:03:55.998Z,95034.34
2023-10-26T16:06:23.846Z,95034.91
2023-10-26T16:08:51.522Z,95033.19
2023-10-26T16:11:19.153Z,95038.34
2023-10-26T16:13:48.358Z,95034.09
2023-10-26T16:16:16.068Z,95029.94
2023-10-26T16:18:47.047Z,95047.22
2023-10-26T16:21:15.124Z,95040.31
2023-10-26T16:23:42.921Z,95050.47
2023-10-26T16:26:10.678Z,95042.81
2023-10-26T16:28:39.328Z,95042.09
2023-10-26T16:31:08.671Z,95050.13
2023-10-26T16:33:37.837Z,95050.78
2023-10-26T16:36:05.824Z,95051.59
2023-10-26T16:38:33.506Z,95051.06
2023-10-26T16:41:01.156Z,95053.66
2023-10-26T16:43:28.768Z,95055.09
2023-10-26T16:45:57.746Z,95055.50
2023-10-26T16:48:27.562Z,95055.88
2023-10-26T16:50:56.130Z,95055.22
2023-10-26T16:53:31.134Z,95068.22
2023-10-26T16:56:00.341Z,95067.22
2023-10-26T16:58:28.122Z,95059.19
2023-10-26T17:00:59.047Z,95062.13
2023-10-26T17:03:29.038Z,95068.28
2023-10-26T17:05:56.726Z,95054.94
2023-10-26T17:08:24.394Z,95059.28
2023-10-26T17:10:52.225Z,95062.22
2023-10-26T17:13:20.890Z,95059.34
2023-10-26T17:15:52.366Z,95061.00
2023-10-26T17:18:20.579Z,95066.56
2023-10-26T17:20:49.704Z,95056.69
2023-10-26T17:23:17.389Z,95050.25
2023-10-26T17:25:45.180Z,95059.81
2023-10-26T17:28:12.915Z,95054.75
2023-10-26T17:30:41.240Z,95054.22
2023-10-26T17:33:13.453Z,95059.84
2023-10-26T17:35:44.151Z,95065.09
2023-10-26T17:38:13.141Z,95064.66
2023-10-26T17:40:40.775Z,95065.84
2023-10-26T17:43:09.439Z,95067.88
2023-10-26T17:45:37.363Z,95069.53
2023-10-26T17:48:05.323Z,95067.50
2023-10-26T17:50:33.049Z,95066.69
2023-10-26T17:53:00.638Z,95060.13
2023-10-26T17:55:29.589Z,95058.31
2023-10-26T17:57:57.239Z,95060.56
2023-10-26T18:00:24.884Z,95068.69
2023-10-26T18:02:52.577Z,95065.19
2023-10-26T18:05:20.206Z,95073.03
2023-10-26T18:07:47.838Z,95068.50
2023-10-26T18:10:16.161Z,95067.41
2023-10-26T18:12:45.824Z,95070.00
2023-10-26T18:15:14.384Z,95063.94
2023-10-26T18:17:42.048Z,95065.75
2023-10-26T18:20:11.090Z,95062.44
2023-10-26T18:22:38.719Z,95066.13
2023-10-26T18:25:07.242Z,95062.81
2023-10-26T18:27:34.896Z,95063.34
2023-10-26T18:30:03.985Z,95058.69
2023-10-26T18:32:31.678Z,95056.28
2023-10-26T18:34:59.399Z,95063.06
2023-10-26T18:37:28.040Z,95059.41
2023-10-26T18:39:58.041Z,95053.69
2023-10-26T18:42:25.912Z,95056.09
2023-10-26T18:44:53.630Z,95058.09
2023-10-26T18:47:22.586Z,95058.75
2023-10-26T18:49:51.666Z,95058.50
2023-10-26T18:52:19.308Z,95051.13
2023-10-26T18:54:46.938Z,95043.09
2023-10-26T18:57:14.588Z,95047.81
2023-10-26T18:59:42.235Z,95048.88
2023-10-26T19:02:10.414Z,95045.94
2023-10-26T19:04:39.623Z,95049.97
2023-10-26T19:07:08.123Z,95051.09
2023-10-26T19:09:35.803Z,95049.50
2023-10-26T19:12:03.428Z,95046.91
2023-10-26T19:14:32.878Z,95058.47
2023-10-26T19:17:00.568Z,95051.03
2023-10-26T19:19:27.276Z,95056.72
2023-10-26T19:21:56.256Z,95049.00
2023-10-26T19:24:24.120Z,95054.81
2023-10-26T19:26:51.884Z,95052.31
2023-10-26T19:29:19.508Z,95051.50
2023-10-26T19:31:47.278Z,95054.34
2023-10-26T19:34:15.070Z,95058.00
2023-10-26T19:36:42.849Z,95054.34
2023-10-26T19:39:11.881Z,95055.69
2023-10-26T19:41:39.572Z,95056.38
2023-10-26T19:44:08.619Z,95061.03
2023-10-26T19:46:39.680Z,95054.41
2023-10-26T19:49:08.064Z,95055.13
2023-10-26T19:51:35.723Z,95049.13
2023-10-26T19:54:04.824Z,95040.97
2023-10-26T19:56:33.866Z,95042.13
2023-10-26T19:59:01.572Z,95038.81
2023-10-26T20:01:29.301Z,95042.84
2023-10-26T20:03:57.141Z,95039.78
2023-10-26T20:06:25.242Z,95033.63
2023-10-26T20:08:53.051Z,95029.06
2023-10-26T20:11:21.374Z,95029.06
2023-10-26T20:13:50.538Z,95020.44
2023-10-26T20:16:18.191Z,95030.84
2023-10-26T20:18:49.376Z,95030.09
2023-10-26T20:21:17.133Z,95028.59
2023-10-26T20:23:44.849Z,95019.94
2023-10-26T20:26:12.499Z,95019.78
2023-10-26T20:28:40.310Z,95012.88
2023-10-26T20:31:09.353Z,95004.88
2023-10-26T20:33:37.079Z,95007.00
2023-10-26T20:36:05.468Z,94995.81
2023-10-26T20:38:33.470Z,94993.47
2023-10-26T20:41:01.116Z,94990.78
2023-10-26T20:43:28.777Z,94992.09
2023-10-26T20:45:57.506Z,94987.16
2023-10-26T20:48:27.073Z,94982.81
2023-10-26T20:50:57.179Z,94981.78
2023-10-26T20:53:27.865Z,94987.41
2023-10-26T20:55:59.038Z,94989.72
2023-10-26T20:58:26.698Z,94990.63
2023-10-26T21:00:54.372Z,94989.28
2023-10-26T21:03:22.534Z,94981.91
2023-10-26T21:05:51.795Z,94982.72
2023-10-26T21:08:19.334Z,94981.63
2023-10-26T21:10:47.265Z,94973.47
2023-10-26T21:13:15.308Z,94973.53
2023-10-26T21:15:43.056Z,94970.47
2023-10-26T21:18:11.460Z,94972.78
2023-10-26T21:20:40.362Z,94966.34
2023-10-26T21:23:09.339Z,94957.72
2023-10-26T21:25:36.971Z,94956.84
2023-10-26T21:28:04.830Z,94960.84
2023-10-26T21:30:32.498Z,94949.06
2023-10-26T21:33:00.115Z,94953.75
2023-10-26T21:35:28.140Z,94953.06
2023-10-26T21:37:56.790Z,94951.50
2023-10-26T21:40:25.771Z,94951.78
2023-10-26T21:42:53.533Z,94943.59
2023-10-26T21:45:21.131Z,94947.94
2023-10-26T21:47:49.103Z,94941.78
2023-10-26T21:50:16.876Z,94940.75
2023-10-26T21:52:44.750Z,94936.91
2023-10-26T21:55:12.661Z,94928.25
2023-10-26T21:57:42.135Z,94932.00
2023-10-26T22:00:12.568Z,94928.25
2023-10-26T22:02:43.892Z,94926.84
2023-10-26T22:05:11.613Z,94918.47
2023-10-26T22:07:39.362Z,94921.59
2023-10-26T22:10:08.785Z,94914.91
2023-10-26T22:12:36.425Z,94905.59
2023-10-26T22:15:06.339Z,94897.13
2023-10-26T22:17:34.026Z,94895.72
2023-10-26T22:20:01.913Z,94891.06
2023-10-26T22:22:29.572Z,94884.06
2023-10-26T22:24:57.199Z,94873.94
2023-10-26T22:27:24.859Z,94882.13
2023-10-26T22:29:52.516Z,94880.25
2023-10-26T22:32:21.452Z,94871.41
2023-10-26T22:34:49.091Z,94870.03
2023-10-26T22:37:16.810Z,94865.00
2023-10-26T22:39:45.094Z,94867.69
2023-10-26T22:42:13.152Z,94863.66
2023-10-26T22:44:40.802Z,94871.41
2023-10-26T22:47:08.576Z,94870.66
2023-10-26T22:49:37.727Z,94871.13
2023-10-26T22:52:06.918Z,94873.06
2023-10-26T22:54:34.409Z,94868.53
2023-10-26T22:57:01.991Z,94870.28
2023-10-26T22:59:29.677Z,94867.16
2023-10-26T23:01:57.869Z,94867.63
2023-10-26T23:04:26.074Z,94872.50
2023-10-26T23:06:55.215Z,94876.63
2023-10-26T23:09:22.954Z,94872.97
2023-10-26T23:11:50.566Z,94879.56
2023-10-26T23:14:18.217Z,94873.59
2023-10-26T23:16:49.289Z,94874.16
2023-10-26T23:19:17.844Z,94869.00
2023-10-26T23:21:46.127Z,94871.03
2023-10-26T23:24:15.227Z,94870.56
2023-10-26T23:26:42.816Z,94873.88
2023-10-26T23:29:10.430Z,94880.25
2023-10-26T23:31:38.042Z,94881.69
2023-10-26T23:34:05.765Z,94872.59
2023-10-26T23:36:33.419Z,94878.94
2023-10-26T23:39:01.032Z,94884.63
2023-10-26T23:41:30.046Z,94892.28
2023-10-26T23:43:57.651Z,94892.28
2023-10-26T23:46:25.304Z,94882.81
2023-10-26T23:48:53.044Z,94886.28
2023-10-26T23:51:20.677Z,94887.66
2023-10-26T23:53:48.320Z,94883.25
2023-10-26T23:56:16.551Z,94879.91
2023-10-26T23:58:45.479Z,94886.72
